createdAt,value
2017-02-12T00:00:18.735Z,-1.66
2017-02-12T00:01:31.768Z,-1.61
2017-02-12T00:02:44.831Z,-1.64
2017-02-12T00:03:57.985Z,-1.69
2017-02-12T00:05:10.642Z,-1.66
2017-02-12T00:06:23.683Z,-1.69
2017-02-12T00:07:36.717Z,-1.61
2017-02-12T00:08:49.814Z,-1.68
2017-02-12T00:10:02.832Z,-1.63
2017-02-12T00:11:15.924Z,-1.61
2017-02-12T00:12:28.602Z,-1.66
2017-02-12T00:13:41.266Z,-1.76
2017-02-12T00:14:54.338Z,-1.71
2017-02-12T00:16:07.444Z,-1.63
2017-02-12T00:17:20.512Z,-1.63
2017-02-12T00:18:33.450Z,-1.68
2017-02-12T00:19:46.507Z,-1.64
2017-02-12T00:20:59.574Z,-1.63
2017-02-12T00:22:12.302Z,-1.71
2017-02-12T00:23:25.356Z,-1.64
2017-02-12T00:24:38.396Z,-1.69
2017-02-12T00:25:51.450Z,-1.63
2017-02-12T00:27:04.482Z,-1.63
2017-02-12T00:28:17.166Z,-1.63
2017-02-12T00:29:30.163Z,-1.66
2017-02-12T00:30:43.240Z,-1.68
2017-02-12T00:31:56.366Z,-1.64
2017-02-12T00:33:09.451Z,-1.68
2017-02-12T00:34:22.496Z,-1.69
2017-02-12T00:35:35.221Z,-1.69
2017-02-12T00:36:48.280Z,-1.68
2017-02-12T00:38:01.314Z,-1.68
2017-02-12T00:39:14.337Z,-1.64
2017-02-12T00:40:27.412Z,-1.66
2017-02-12T00:41:39.756Z,-1.68
2017-02-12T00:42:52.836Z,-1.66
2017-02-12T00:44:05.925Z,-1.72
2017-02-12T00:45:18.625Z,-1.68
2017-02-12T00:46:31.733Z,-1.66
2017-02-12T00:47:44.769Z,-1.69
2017-02-12T00:48:57.827Z,-1.68
2017-02-12T00:50:10.868Z,-1.68
2017-02-12T00:51:23.913Z,-1.68
2017-02-12T00:52:37.061Z,-1.63
2017-02-12T00:53:50.104Z,-1.64
2017-02-12T00:55:03.249Z,-1.68
2017-02-12T00:56:16.349Z,-1.64
2017-02-12T00:57:29.417Z,-1.69
2017-02-12T00:58:42.057Z,-1.64
2017-02-12T00:59:55.123Z,-1.76
2017-02-12T01:01:08.236Z,-1.64
2017-02-12T01:02:21.275Z,-1.64
2017-02-12T01:03:33.935Z,-1.64
2017-02-12T01:04:47.019Z,-1.64
2017-02-12T01:06:00.125Z,-1.64
2017-02-12T01:07:13.184Z,-1.61
2017-02-12T01:08:25.856Z,-1.63
2017-02-12T01:09:38.883Z,-1.63
2017-02-12T01:10:51.948Z,-1.61
2017-02-12T01:12:05.028Z,-1.64
2017-02-12T01:13:17.715Z,-1.61
2017-02-12T01:14:30.785Z,-1.66
2017-02-12T01:15:43.431Z,-1.63
2017-02-12T01:16:56.503Z,-1.69
2017-02-12T01:18:09.547Z,-1.61
2017-02-12T01:19:22.205Z,-1.61
2017-02-12T01:20:34.893Z,-1.68
2017-02-12T01:21:47.960Z,-1.63
2017-02-12T01:23:00.974Z,-1.63
2017-02-12T01:24:14.105Z,-1.66
2017-02-12T01:25:26.790Z,-1.5
2017-02-12T01:26:39.443Z,-1.6
2017-02-12T01:27:52.552Z,-1.63
2017-02-12T01:29:05.667Z,-1.51
2017-02-12T01:30:17.972Z,-1.63
2017-02-12T01:31:31.070Z,-1.57
2017-02-12T01:32:44.098Z,-1.56
2017-02-12T01:33:57.122Z,-1.54
2017-02-12T01:35:09.814Z,-1.61
2017-02-12T01:36:22.886Z,-1.6
2017-02-12T01:37:35.899Z,-1.57
2017-02-12T01:38:48.972Z,-1.66
2017-02-12T01:40:02.011Z,-1.58
2017-02-12T01:41:15.050Z,-1.61
2017-02-12T01:42:28.151Z,-1.54
2017-02-12T01:43:40.829Z,-1.54
2017-02-12T01:44:53.894Z,-1.63
2017-02-12T01:46:07.216Z,-1.54
2017-02-12T01:47:19.905Z,-1.54
2017-02-12T01:48:32.969Z,-1.51
2017-02-12T01:49:45.997Z,-1.53
2017-02-12T01:50:59.062Z,-1.5
2017-02-12T01:52:12.124Z,-1.51
2017-02-12T01:53:25.226Z,-1.54
2017-02-12T01:54:38.292Z,-1.5
2017-02-12T01:55:51.344Z,-1.54
2017-02-12T01:57:04.426Z,-1.5
2017-02-12T01:58:17.137Z,-1.51
2017-02-12T01:59:30.159Z,-1.51
2017-02-12T02:00:43.190Z,-1.48
2017-02-12T02:01:56.267Z,-1.54
2017-02-12T02:03:09.370Z,-1.5
2017-02-12T02:04:22.015Z,-1.56
2017-02-12T02:05:35.030Z,-1.45
2017-02-12T02:06:47.695Z,-1.5
2017-02-12T02:08:00.354Z,-1.51
2017-02-12T02:09:13.013Z,-1.46
2017-02-12T02:10:26.070Z,-1.51
2017-02-12T02:11:38.766Z,-1.56
2017-02-12T02:12:51.841Z,-1.53
2017-02-12T02:14:04.926Z,-1.46
2017-02-12T02:15:17.996Z,-1.54
2017-02-12T02:16:31.087Z,-1.56
2017-02-12T02:17:44.221Z,-1.48
2017-02-12T02:18:57.292Z,-1.54
2017-02-12T02:20:09.929Z,-1.54
2017-02-12T02:21:22.994Z,-1.54
2017-02-12T02:22:36.054Z,-1.54
2017-02-12T02:23:49.075Z,-1.51
2017-02-12T02:25:02.177Z,-1.56
2017-02-12T02:26:15.295Z,-1.51
2017-02-12T02:27:28.405Z,-1.5
2017-02-12T02:28:41.462Z,-1.53
2017-02-12T02:29:54.523Z,-1.56
2017-02-12T02:31:07.587Z,-1.51
2017-02-12T02:32:20.649Z,-1.53
2017-02-12T02:33:33.721Z,-1.57
2017-02-12T02:34:46.765Z,-1.54
2017-02-12T02:35:59.867Z,-1.51
2017-02-12T02:37:12.942Z,-1.51
2017-02-12T02:38:26.025Z,-1.54
2017-02-12T02:39:39.047Z,-1.5
2017-02-12T02:40:52.117Z,-1.45
2017-02-12T02:42:05.217Z,-1.51
2017-02-12T02:43:17.893Z,-1.54
2017-02-12T02:44:30.956Z,-1.45
2017-02-12T02:45:44.001Z,-1.46
2017-02-12T02:46:57.070Z,-1.56
2017-02-12T02:48:10.129Z,-1.54
2017-02-12T02:49:23.149Z,-1.5
2017-02-12T02:50:36.209Z,-1.46
2017-02-12T02:51:49.242Z,-1.45
2017-02-12T02:53:02.319Z,-1.4
2017-02-12T02:54:15.415Z,-1.43
2017-02-12T02:55:28.544Z,-1.48
2017-02-12T02:56:41.613Z,-1.43
2017-02-12T02:57:54.746Z,-1.56
2017-02-12T02:59:07.804Z,-1.45
2017-02-12T03:00:20.452Z,-1.46
2017-02-12T03:01:33.159Z,-1.51
2017-02-12T03:02:45.919Z,-1.46
2017-02-12T03:03:58.957Z,-1.45
2017-02-12T03:05:12.017Z,-1.45
2017-02-12T03:06:25.060Z,-1.48
2017-02-12T03:07:38.158Z,-1.42
2017-02-12T03:08:50.934Z,-1.53
2017-02-12T03:10:03.620Z,-1.42
2017-02-12T03:11:16.716Z,-1.45
2017-02-12T03:12:29.619Z,-1.4
2017-02-12T03:13:42.263Z,-1.56
2017-02-12T03:14:55.351Z,-1.42
2017-02-12T03:16:08.046Z,-1.43
2017-02-12T03:17:20.319Z,-1.43
2017-02-12T03:18:33.368Z,-1.43
2017-02-12T03:19:46.048Z,-1.5
2017-02-12T03:20:59.188Z,-1.51
2017-02-12T03:22:12.218Z,-1.53
2017-02-12T03:23:24.966Z,-1.4
2017-02-12T03:24:38.045Z,-1.45
2017-02-12T03:25:51.072Z,-1.4
2017-02-12T03:27:04.161Z,-1.45
2017-02-12T03:28:17.208Z,-1.46
2017-02-12T03:29:30.228Z,-1.45
2017-02-12T03:30:42.877Z,-1.42
2017-02-12T03:31:56.048Z,-1.46
2017-02-12T03:33:09.126Z,-1.42
2017-02-12T03:34:22.155Z,-1.45
2017-02-12T03:35:35.207Z,-1.45
2017-02-12T03:36:48.246Z,-1.48
2017-02-12T03:38:01.275Z,-1.36
2017-02-12T03:39:14.320Z,-1.36
2017-02-12T03:40:27.341Z,-1.39
2017-02-12T03:41:40.411Z,-1.43
2017-02-12T03:42:53.159Z,-1.42
2017-02-12T03:44:06.289Z,-1.42
2017-02-12T03:45:19.011Z,-1.4
2017-02-12T03:46:32.102Z,-1.43
2017-02-12T03:47:45.203Z,-1.43
2017-02-12T03:48:57.879Z,-1.45
2017-02-12T03:50:10.984Z,-1.45
2017-02-12T03:51:24.052Z,-1.45
2017-02-12T03:52:37.150Z,-1.42
2017-02-12T03:53:50.246Z,-1.45
2017-02-12T03:55:03.317Z,-1.4
2017-02-12T03:56:16.363Z,-1.53
2017-02-12T03:57:29.449Z,-1.45
2017-02-12T03:58:42.163Z,-1.46
2017-02-12T03:59:55.275Z,-1.45
2017-02-12T04:01:07.938Z,-1.45
2017-02-12T04:02:20.625Z,-1.42
2017-02-12T04:03:33.654Z,-1.45
2017-02-12T04:04:46.353Z,-1.48
2017-02-12T04:05:59.459Z,-1.42
2017-02-12T04:07:12.498Z,-1.46
2017-02-12T04:08:25.650Z,-1.54
2017-02-12T04:09:38.799Z,-1.51
2017-02-12T04:10:51.431Z,-1.54
2017-02-12T04:12:04.115Z,-1.51
2017-02-12T04:13:16.765Z,-1.54
2017-02-12T04:14:29.875Z,-1.45
2017-02-12T04:15:42.533Z,-1.45
2017-02-12T04:16:55.634Z,-1.51
2017-02-12T04:18:08.639Z,-1.43
2017-02-12T04:19:21.309Z,-1.46
2017-02-12T04:20:34.355Z,-1.5
2017-02-12T04:21:47.429Z,-1.45
2017-02-12T04:23:00.478Z,-1.51
2017-02-12T04:24:13.516Z,-1.51
2017-02-12T04:25:26.532Z,-1.56
2017-02-12T04:26:39.584Z,-1.54
2017-02-12T04:27:52.704Z,-1.53
2017-02-12T04:29:05.835Z,-1.53
2017-02-12T04:30:18.896Z,-1.61
2017-02-12T04:31:31.993Z,-1.61
2017-02-12T04:32:45.380Z,-1.61
2017-02-12T04:33:58.409Z,-1.63
2017-02-12T04:35:11.441Z,-1.57
2017-02-12T04:36:24.504Z,-1.48
2017-02-12T04:37:37.647Z,-1.61
2017-02-12T04:38:50.969Z,-1.56
2017-02-12T04:40:04.062Z,-1.61
2017-02-12T04:41:17.102Z,-1.61
2017-02-12T04:42:30.194Z,-1.63
2017-02-12T04:43:43.359Z,-1.58
2017-02-12T04:44:56.389Z,-1.57
2017-02-12T04:46:09.425Z,-1.58
2017-02-12T04:47:22.467Z,-1.56
2017-02-12T04:48:35.572Z,-1.56
2017-02-12T04:49:48.679Z,-1.61
2017-02-12T04:51:01.695Z,-1.57
2017-02-12T04:52:14.314Z,-1.6
2017-02-12T04:53:27.317Z,-1.61
2017-02-12T04:54:40.388Z,-1.57
2017-02-12T04:55:53.509Z,-1.6
2017-02-12T04:57:06.223Z,-1.57
2017-02-12T04:58:18.925Z,-1.57
2017-02-12T04:59:31.971Z,-1.61
2017-02-12T05:00:45.041Z,-1.63
2017-02-12T05:01:58.090Z,-1.63
2017-02-12T05:03:11.122Z,-1.78
2017-02-12T05:04:24.156Z,-1.68
2017-02-12T05:05:37.244Z,-1.66
2017-02-12T05:06:49.920Z,-1.76
2017-02-12T05:08:03.075Z,-1.76
2017-02-12T05:09:15.744Z,-1.76
2017-02-12T05:10:28.759Z,-1.76
2017-02-12T05:11:41.409Z,-1.76
2017-02-12T05:12:54.550Z,-1.79
2017-02-12T05:14:07.252Z,-1.68
2017-02-12T05:15:19.912Z,-1.71
2017-02-12T05:16:32.939Z,-1.68
2017-02-12T05:17:45.596Z,-1.78
2017-02-12T05:18:58.762Z,-1.6
2017-02-12T05:20:11.803Z,-1.64
2017-02-12T05:21:24.497Z,-1.66
2017-02-12T05:22:37.594Z,-1.79
2017-02-12T05:23:50.641Z,-1.66
2017-02-12T05:25:03.712Z,-1.64
2017-02-12T05:26:16.763Z,-1.64
2017-02-12T05:27:29.870Z,-1.63
2017-02-12T05:28:42.891Z,-1.64
2017-02-12T05:29:55.905Z,-1.66
2017-02-12T05:31:08.989Z,-1.61
2017-02-12T05:32:22.064Z,-1.64
2017-02-12T05:33:35.173Z,-1.61
2017-02-12T05:34:47.813Z,-1.6
2017-02-12T05:36:00.911Z,-1.64
2017-02-12T05:37:13.619Z,-1.63
2017-02-12T05:38:26.249Z,-1.68
2017-02-12T05:39:39.310Z,-1.71
2017-02-12T05:40:52.399Z,-1.69
2017-02-12T05:42:05.429Z,-1.72
2017-02-12T05:43:18.510Z,-1.69
2017-02-12T05:44:31.545Z,-1.68
2017-02-12T05:45:44.628Z,-1.79
2017-02-12T05:46:57.697Z,-1.64
2017-02-12T05:48:10.444Z,-1.64
2017-02-12T05:49:23.179Z,-1.66
2017-02-12T05:50:36.247Z,-1.61
2017-02-12T05:51:48.520Z,-1.79
2017-02-12T05:53:01.590Z,-1.66
2017-02-12T05:54:14.186Z,-1.69
2017-02-12T05:55:27.242Z,-1.66
2017-02-12T05:56:40.290Z,-1.66
2017-02-12T05:57:53.463Z,-1.66
2017-02-12T05:59:06.545Z,-1.76
2017-02-12T06:00:19.610Z,-1.71
2017-02-12T06:01:32.637Z,-1.61
2017-02-12T06:02:45.704Z,-1.63
2017-02-12T06:03:58.789Z,-1.68
2017-02-12T06:05:11.856Z,-1.69
2017-02-12T06:06:24.944Z,-1.72
2017-02-12T06:07:37.966Z,-1.69
2017-02-12T06:08:51.087Z,-1.63
2017-02-12T06:10:04.187Z,-1.79
2017-02-12T06:11:17.306Z,-1.75
2017-02-12T06:12:30.411Z,-1.75
2017-02-12T06:13:43.163Z,-1.72
2017-02-12T06:14:56.192Z,-1.74
2017-02-12T06:16:09.253Z,-1.66
2017-02-12T06:17:21.946Z,-1.71
2017-02-12T06:18:35.029Z,-1.74
2017-02-12T06:19:48.122Z,-1.71
2017-02-12T06:21:01.230Z,-1.72
2017-02-12T06:22:14.303Z,-1.74
2017-02-12T06:23:27.355Z,-1.71
2017-02-12T06:24:40.358Z,-1.63
2017-02-12T06:25:53.415Z,-1.76
2017-02-12T06:27:06.499Z,-1.74
2017-02-12T06:28:19.549Z,-1.68
2017-02-12T06:29:32.648Z,-1.72
2017-02-12T06:30:45.688Z,-1.72
2017-02-12T06:31:58.764Z,-1.79
2017-02-12T06:33:11.877Z,-1.68
2017-02-12T06:34:24.568Z,-1.72
2017-02-12T06:35:37.639Z,-1.74
2017-02-12T06:36:50.691Z,-1.76
2017-02-12T06:38:03.780Z,-1.66
2017-02-12T06:39:16.438Z,-1.76
2017-02-12T06:40:29.579Z,-1.69
2017-02-12T06:41:42.650Z,-1.72
2017-02-12T06:42:55.688Z,-1.64
2017-02-12T06:44:08.767Z,-1.76
2017-02-12T06:45:21.850Z,-1.66
2017-02-12T06:46:34.907Z,-1.72
2017-02-12T06:47:47.997Z,-1.84
2017-02-12T06:49:01.062Z,-1.84
2017-02-12T06:50:13.795Z,-1.81
2017-02-12T06:51:26.894Z,-1.78
2017-02-12T06:52:39.912Z,-1.69
2017-02-12T06:53:53.234Z,-1.84
2017-02-12T06:55:06.318Z,-1.75
2017-02-12T06:56:19.426Z,-1.79
2017-02-12T06:57:32.443Z,-1.71
2017-02-12T06:58:45.499Z,-1.79
2017-02-12T06:59:58.530Z,-1.76
2017-02-12T07:01:10.853Z,-1.78
2017-02-12T07:02:23.980Z,-1.84
2017-02-12T07:03:37.075Z,-1.86
2017-02-12T07:04:50.108Z,-1.81
2017-02-12T07:06:03.143Z,-1.86
2017-02-12T07:07:16.209Z,-1.76
2017-02-12T07:08:29.297Z,-1.84
2017-02-12T07:09:42.381Z,-1.74
2017-02-12T07:10:55.388Z,-1.72
2017-02-12T07:12:08.056Z,-1.71
2017-02-12T07:13:20.362Z,-1.78
2017-02-12T07:14:33.371Z,-1.68
2017-02-12T07:15:46.410Z,-1.72
2017-02-12T07:16:59.456Z,-1.68
2017-02-12T07:18:11.405Z,-1.69
2017-02-12T07:19:24.454Z,-1.63
2017-02-12T07:20:37.544Z,-1.69
2017-02-12T07:21:50.587Z,-1.75
2017-02-12T07:23:03.639Z,-1.74
2017-02-12T07:24:16.661Z,-1.69
2017-02-12T07:25:29.769Z,-1.68
2017-02-12T07:26:42.848Z,-1.69
2017-02-12T07:27:55.955Z,-1.64
2017-02-12T07:29:09.032Z,-1.64
2017-02-12T07:30:22.128Z,-1.63
2017-02-12T07:31:35.199Z,-1.56
2017-02-12T07:32:48.237Z,-1.61
2017-02-12T07:34:01.336Z,-1.61
2017-02-12T07:35:14.081Z,-1.61
2017-02-12T07:36:27.140Z,-1.64
2017-02-12T07:37:40.216Z,-1.54
2017-02-12T07:38:53.263Z,-1.5
2017-02-12T07:40:06.316Z,-1.53
2017-02-12T07:41:19.378Z,-1.51
2017-02-12T07:42:32.481Z,-1.46
2017-02-12T07:43:45.541Z,-1.45
2017-02-12T07:44:58.639Z,-1.42
2017-02-12T07:46:11.701Z,-1.4
2017-02-12T07:47:24.756Z,-1.38
2017-02-12T07:48:38.085Z,-1.38
2017-02-12T07:49:51.137Z,-1.38
2017-02-12T07:51:04.226Z,-1.43
2017-02-12T07:52:16.893Z,-1.45
2017-02-12T07:53:30.008Z,-1.45
2017-02-12T07:54:43.059Z,-1.42
2017-02-12T07:55:56.166Z,-1.38
2017-02-12T07:57:09.245Z,-1.38
2017-02-12T07:58:21.915Z,-1.33
2017-02-12T07:59:34.998Z,-1.33
2017-02-12T08:00:47.682Z,-1.38
2017-02-12T08:02:00.807Z,-1.38
2017-02-12T08:03:13.102Z,-1.3
2017-02-12T08:04:26.451Z,-1.3
2017-02-12T08:05:39.514Z,-1.36
2017-02-12T08:06:52.549Z,-1.25
2017-02-12T08:08:05.599Z,-1.32
2017-02-12T08:09:18.665Z,-1.24
2017-02-12T08:10:31.749Z,-1.3
2017-02-12T08:11:44.830Z,-1.3
2017-02-12T08:12:58.017Z,-1.24
2017-02-12T08:14:11.063Z,-1.17
2017-02-12T08:15:24.107Z,-1.14
2017-02-12T08:16:37.177Z,-1.32
2017-02-12T08:17:49.875Z,-1.25
2017-02-12T08:19:02.944Z,-1.17
2017-02-12T08:20:15.641Z,-1.18
2017-02-12T08:21:28.689Z,-1.25
2017-02-12T08:22:41.758Z,-1.17
2017-02-12T08:23:54.754Z,-1.21
2017-02-12T08:25:07.872Z,-1.21
2017-02-12T08:26:20.122Z,-1.19
2017-02-12T08:27:33.197Z,-1.21
2017-02-12T08:28:46.249Z,-1.14
2017-02-12T08:29:59.395Z,-1.14
2017-02-12T08:31:12.087Z,-1.09
2017-02-12T08:32:24.777Z,-1.12
2017-02-12T08:33:37.808Z,-1.12
2017-02-12T08:34:50.916Z,-1.12
2017-02-12T08:36:03.955Z,-1.09
2017-02-12T08:37:16.965Z,-0.99
2017-02-12T08:38:29.990Z,-1.06
2017-02-12T08:39:43.082Z,-1.03
2017-02-12T08:40:56.175Z,-1.03
2017-02-12T08:42:09.243Z,-1.03
2017-02-12T08:43:22.313Z,-0.97
2017-02-12T08:44:35.352Z,-0.94
2017-02-12T08:45:48.421Z,-0.97
2017-02-12T08:47:01.480Z,-0.96
2017-02-12T08:48:14.567Z,-0.97
2017-02-12T08:49:27.635Z,-0.96
2017-02-12T08:50:40.730Z,-0.85
2017-02-12T08:51:53.809Z,-0.91
2017-02-12T08:53:06.838Z,-0.89
2017-02-12T08:54:19.157Z,-0.93
2017-02-12T08:55:32.247Z,-0.87
2017-02-12T08:56:45.337Z,-0.85
2017-02-12T08:57:58.420Z,-0.81
2017-02-12T08:59:10.753Z,-0.91
2017-02-12T09:00:23.840Z,-0.82
2017-02-12T09:01:36.901Z,-0.91
2017-02-12T09:02:49.915Z,-0.85
2017-02-12T09:04:03.267Z,-0.81
2017-02-12T09:05:15.950Z,-0.84
2017-02-12T09:06:29.065Z,-0.78
2017-02-12T09:07:42.196Z,-0.89
2017-02-12T09:08:55.301Z,-0.82
2017-02-12T09:10:08.414Z,-0.8
2017-02-12T09:11:21.105Z,-0.77
2017-02-12T09:12:34.216Z,-0.78
2017-02-12T09:13:47.352Z,-0.72
2017-02-12T09:15:00.084Z,-0.75
2017-02-12T09:16:12.826Z,-0.78
2017-02-12T09:17:25.522Z,-0.7
2017-02-12T09:18:38.587Z,-0.7
2017-02-12T09:19:51.333Z,-0.74
2017-02-12T09:21:04.410Z,-0.66
2017-02-12T09:22:16.681Z,-0.59
2017-02-12T09:23:29.775Z,-0.57
2017-02-12T09:24:42.809Z,-0.57
2017-02-12T09:25:56.143Z,-0.48
2017-02-12T09:27:09.249Z,-0.45
2017-02-12T09:28:22.336Z,-0.41
2017-02-12T09:29:35.407Z,-0.39
2017-02-12T09:30:48.427Z,-0.42
2017-02-12T09:32:01.490Z,-0.44
2017-02-12T09:33:14.142Z,-0.46
2017-02-12T09:34:26.840Z,-0.51
2017-02-12T09:35:39.902Z,-0.46
2017-02-12T09:36:53.001Z,-0.48
2017-02-12T09:38:06.040Z,-0.56
2017-02-12T09:39:18.722Z,-0.45
2017-02-12T09:40:31.768Z,-0.42
2017-02-12T09:41:44.806Z,-0.39
2017-02-12T09:42:57.836Z,-0.33
2017-02-12T09:44:10.132Z,-0.35
2017-02-12T09:45:22.845Z,-0.36
2017-02-12T09:46:35.898Z,-0.27
2017-02-12T09:47:49.180Z,-0.44
2017-02-12T09:49:01.912Z,-0.3
2017-02-12T09:50:14.258Z,-0.41
2017-02-12T09:51:27.314Z,-0.36
2017-02-12T09:52:39.982Z,-0.3
2017-02-12T09:53:53.009Z,-0.35
2017-02-12T09:55:06.135Z,-0.27
2017-02-12T09:56:19.217Z,-0.23
2017-02-12T09:57:32.331Z,-0.28
2017-02-12T09:58:45.655Z,-0.17
2017-02-12T09:59:58.706Z,-0.2
2017-02-12T10:01:11.847Z,-0.2
2017-02-12T10:02:24.921Z,-0.17
2017-02-12T10:03:37.965Z,-0.15
2017-02-12T10:04:50.960Z,-0.17
2017-02-12T10:06:04.064Z,-0.18
2017-02-12T10:07:16.742Z,-0.12
2017-02-12T10:08:29.800Z,-0.09
2017-02-12T10:09:42.904Z,-0.13
2017-02-12T10:10:55.970Z,-0.05
2017-02-12T10:12:09.028Z,0.06
2017-02-12T10:13:22.132Z,0.05
2017-02-12T10:14:35.202Z,0.02
2017-02-12T10:15:48.278Z,0.09
2017-02-12T10:17:01.295Z,0.08
2017-02-12T10:18:13.215Z,0.08
2017-02-12T10:19:25.862Z,0.08
2017-02-12T10:20:38.906Z,0.12
2017-02-12T10:21:51.208Z,0.06
2017-02-12T10:23:04.274Z,0.11
2017-02-12T10:24:16.965Z,-0.02
2017-02-12T10:25:30.051Z,0.13
2017-02-12T10:26:43.135Z,0.13
2017-02-12T10:27:56.217Z,0.16
2017-02-12T10:29:09.287Z,0.18
2017-02-12T10:30:22.426Z,0.23
2017-02-12T10:31:35.483Z,0.23
2017-02-12T10:32:48.607Z,0.3
2017-02-12T10:34:01.655Z,0.24
2017-02-12T10:35:14.382Z,0.24
2017-02-12T10:36:27.517Z,0.3
2017-02-12T10:37:40.572Z,0.36
2017-02-12T10:38:53.688Z,0.11
2017-02-12T10:40:06.691Z,0.19
2017-02-12T10:41:19.373Z,0.2
2017-02-12T10:42:32.441Z,0.18
2017-02-12T10:43:45.543Z,0.18
2017-02-12T10:44:58.597Z,0.18
2017-02-12T10:46:11.272Z,0.15
2017-02-12T10:47:24.339Z,0.23
2017-02-12T10:48:37.104Z,0.2
2017-02-12T10:49:50.114Z,0.29
2017-02-12T10:51:03.203Z,0.26
2017-02-12T10:52:16.299Z,0.29
2017-02-12T10:53:29.355Z,0.33
2017-02-12T10:54:42.441Z,0.33
2017-02-12T10:55:54.747Z,0.27
2017-02-12T10:57:07.851Z,0.37
2017-02-12T10:58:20.936Z,0.3
2017-02-12T10:59:33.998Z,0.31
2017-02-12T11:00:46.668Z,0.33
2017-02-12T11:01:59.719Z,0.4
2017-02-12T11:03:12.805Z,0.4
2017-02-12T11:04:25.883Z,0.42
2017-02-12T11:05:38.905Z,0.49
2017-02-12T11:06:51.592Z,0.51
2017-02-12T11:08:04.664Z,0.63
2017-02-12T11:09:16.911Z,0.68
2017-02-12T11:10:29.980Z,0.73
2017-02-12T11:11:43.034Z,0.77
2017-02-12T11:12:56.104Z,0.78
2017-02-12T11:14:09.042Z,0.74
2017-02-12T11:15:21.703Z,0.84
2017-02-12T11:16:34.795Z,0.73
2017-02-12T11:17:47.899Z,0.68
2017-02-12T11:19:01.026Z,0.77
2017-02-12T11:20:13.722Z,0.88
2017-02-12T11:21:26.402Z,0.86
2017-02-12T11:22:39.447Z,0.82
2017-02-12T11:23:52.467Z,0.84
2017-02-12T11:25:05.692Z,0.88
2017-02-12T11:26:18.843Z,0.99
2017-02-12T11:27:31.872Z,0.95
2017-02-12T11:28:44.903Z,0.94
2017-02-12T11:29:57.922Z,1.06
2017-02-12T11:31:10.618Z,1
2017-02-12T11:32:23.674Z,1.06
2017-02-12T11:33:36.790Z,1.1
2017-02-12T11:34:49.830Z,1.12
2017-02-12T11:36:02.480Z,1.2
2017-02-12T11:37:15.564Z,1.02
2017-02-12T11:38:28.610Z,1.06
2017-02-12T11:39:41.682Z,1
2017-02-12T11:40:54.713Z,1.03
2017-02-12T11:42:08.138Z,0.96
2017-02-12T11:43:21.188Z,1.06
2017-02-12T11:44:34.248Z,1.14
2017-02-12T11:45:47.295Z,1.14
2017-02-12T11:47:00.332Z,1.16
2017-02-12T11:48:13.047Z,1.2
2017-02-12T11:49:25.356Z,1.22
2017-02-12T11:50:38.459Z,1.27
2017-02-12T11:51:51.524Z,1.21
2017-02-12T11:53:04.600Z,1.25
2017-02-12T11:54:17.717Z,1.25
2017-02-12T11:55:30.436Z,1.21
2017-02-12T11:56:43.524Z,1.27
2017-02-12T11:57:56.938Z,1.3
2017-02-12T11:59:09.992Z,1.22
2017-02-12T12:00:22.686Z,1.28
2017-02-12T12:01:35.701Z,1.22
2017-02-12T12:02:48.839Z,1.31
2017-02-12T12:04:01.869Z,1.42
2017-02-12T12:05:14.953Z,1.4
2017-02-12T12:06:27.972Z,1.36
2017-02-12T12:07:41.022Z,1.49
2017-02-12T12:08:54.121Z,1.46
2017-02-12T12:10:07.198Z,1.5
2017-02-12T12:11:19.931Z,1.46
2017-02-12T12:12:33.003Z,1.52
2017-02-12T12:13:45.641Z,1.49
2017-02-12T12:14:58.720Z,1.48
2017-02-12T12:16:10.220Z,1.49
2017-02-12T12:17:23.287Z,1.56
2017-02-12T12:18:36.361Z,1.43
2017-02-12T12:19:49.645Z,1.38
2017-02-12T12:21:02.660Z,1.49
2017-02-12T12:22:15.738Z,1.39
2017-02-12T12:23:28.823Z,1.46
2017-02-12T12:24:41.898Z,1.48
2017-02-12T12:25:54.984Z,1.36
2017-02-12T12:27:08.054Z,1.45
2017-02-12T12:28:20.704Z,1.48
2017-02-12T12:29:33.741Z,1.46
2017-02-12T12:30:46.791Z,1.42
2017-02-12T12:31:59.860Z,1.52
2017-02-12T12:33:12.533Z,1.58
2017-02-12T12:34:24.810Z,1.66
2017-02-12T12:35:37.951Z,1.71
2017-02-12T12:36:50.996Z,1.7
2017-02-12T12:38:03.735Z,1.64
2017-02-12T12:39:16.840Z,1.6
2017-02-12T12:40:29.534Z,1.67
2017-02-12T12:41:42.565Z,1.56
2017-02-12T12:42:55.253Z,1.66
2017-02-12T12:44:08.247Z,1.66
2017-02-12T12:45:21.294Z,1.67
2017-02-12T12:46:34.390Z,1.71
2017-02-12T12:47:47.463Z,1.81
2017-02-12T12:49:00.206Z,1.82
2017-02-12T12:50:13.299Z,1.81
2017-02-12T12:51:26.007Z,1.79
2017-02-12T12:52:39.043Z,1.93
2017-02-12T12:53:52.138Z,1.89
2017-02-12T12:55:05.197Z,1.88
2017-02-12T12:56:18.316Z,1.81
2017-02-12T12:57:31.346Z,1.88
2017-02-12T12:58:44.374Z,1.85
2017-02-12T12:59:57.443Z,1.85
2017-02-12T13:01:10.581Z,1.82
2017-02-12T13:02:23.265Z,1.75
2017-02-12T13:03:36.380Z,1.67
2017-02-12T13:04:49.476Z,1.68
2017-02-12T13:06:02.548Z,1.66
2017-02-12T13:07:15.261Z,1.63
2017-02-12T13:08:28.338Z,1.61
2017-02-12T13:09:41.441Z,1.49
2017-02-12T13:10:54.517Z,1.43
2017-02-12T13:12:06.830Z,1.31
2017-02-12T13:13:19.909Z,1.22
2017-02-12T13:14:33.011Z,1.24
2017-02-12T13:15:46.064Z,1.25
2017-02-12T13:16:59.160Z,1.16
2017-02-12T13:18:12.274Z,1.18
2017-02-12T13:19:25.550Z,1.04
2017-02-12T13:20:38.648Z,1.12
2017-02-12T13:21:51.663Z,1.1
2017-02-12T13:23:04.293Z,1.14
2017-02-12T13:24:17.371Z,1.27
2017-02-12T13:25:30.494Z,1.25
2017-02-12T13:26:43.588Z,1.27
2017-02-12T13:27:56.691Z,1.32
2017-02-12T13:29:09.720Z,1.32
2017-02-12T13:30:22.841Z,1.31
2017-02-12T13:31:36.039Z,1.27
2017-02-12T13:32:49.085Z,1.31
2017-02-12T13:34:01.770Z,1.36
2017-02-12T13:35:14.480Z,1.34
2017-02-12T13:36:27.560Z,1.36
2017-02-12T13:37:40.644Z,1.42
2017-02-12T13:38:53.754Z,1.43
2017-02-12T13:40:06.842Z,1.45
2017-02-12T13:41:19.553Z,1.39
2017-02-12T13:42:32.605Z,1.36
2017-02-12T13:43:45.676Z,1.39
2017-02-12T13:44:58.739Z,1.38
2017-02-12T13:46:11.868Z,1.42
2017-02-12T13:47:24.944Z,1.42
2017-02-12T13:48:37.659Z,1.38
2017-02-12T13:49:50.734Z,1.46
2017-02-12T13:51:03.798Z,1.3
2017-02-12T13:52:16.441Z,1.39
2017-02-12T13:53:29.127Z,1.27
2017-02-12T13:54:42.218Z,1.27
2017-02-12T13:55:55.284Z,1.34
2017-02-12T13:57:07.974Z,1.3
2017-02-12T13:58:21.047Z,1.28
2017-02-12T13:59:34.115Z,1.27
2017-02-12T14:00:47.262Z,1.36
2017-02-12T14:02:00.563Z,1.27
2017-02-12T14:03:13.270Z,1.32
2017-02-12T14:04:26.374Z,1.28
2017-02-12T14:05:39.502Z,1.2
2017-02-12T14:06:52.577Z,1.13
2017-02-12T14:08:05.700Z,1.12
2017-02-12T14:09:18.413Z,1.22
2017-02-12T14:10:31.479Z,1.03
2017-02-12T14:11:44.568Z,1.16
2017-02-12T14:12:57.620Z,1.14
2017-02-12T14:14:10.265Z,1.14
2017-02-12T14:15:23.343Z,1.12
2017-02-12T14:16:36.426Z,1.12
2017-02-12T14:17:49.555Z,1.2
2017-02-12T14:19:02.650Z,1.09
2017-02-12T14:20:15.721Z,1.03
2017-02-12T14:21:28.759Z,0.95
2017-02-12T14:22:41.830Z,1.02
2017-02-12T14:23:54.885Z,0.94
2017-02-12T14:25:07.572Z,1.02
2017-02-12T14:26:20.662Z,0.99
2017-02-12T14:27:33.776Z,1
2017-02-12T14:28:46.817Z,0.82
2017-02-12T14:29:59.913Z,0.86
2017-02-12T14:31:13.143Z,0.84
2017-02-12T14:32:26.215Z,0.94
2017-02-12T14:33:39.292Z,0.74
2017-02-12T14:34:52.321Z,0.76
2017-02-12T14:36:05.392Z,0.73
2017-02-12T14:37:18.119Z,0.77
2017-02-12T14:38:31.195Z,0.84
2017-02-12T14:39:44.328Z,0.77
2017-02-12T14:40:57.460Z,0.74
2017-02-12T14:42:09.758Z,0.76
2017-02-12T14:43:22.817Z,0.74
2017-02-12T14:44:35.480Z,0.77
2017-02-12T14:45:48.558Z,0.76
2017-02-12T14:47:01.609Z,0.77
2017-02-12T14:48:13.900Z,0.73
2017-02-12T14:49:27.025Z,0.76
2017-02-12T14:50:40.074Z,0.74
2017-02-12T14:51:53.164Z,0.55
2017-02-12T14:53:06.206Z,0.7
2017-02-12T14:54:18.855Z,0.63
2017-02-12T14:55:31.963Z,0.63
2017-02-12T14:56:45.090Z,0.67
2017-02-12T14:57:58.124Z,0.58
2017-02-12T14:59:11.216Z,0.52
2017-02-12T15:00:24.351Z,0.56
2017-02-12T15:01:37.405Z,0.66
2017-02-12T15:02:50.469Z,0.7
2017-02-12T15:04:03.125Z,0.71
2017-02-12T15:05:16.243Z,0.68
2017-02-12T15:06:29.362Z,0.58
2017-02-12T15:07:42.010Z,0.59
2017-02-12T15:08:55.036Z,0.56
2017-02-12T15:10:07.763Z,0.51
2017-02-12T15:11:20.839Z,0.51
2017-02-12T15:12:33.980Z,0.47
2017-02-12T15:13:47.043Z,0.37
2017-02-12T15:15:00.169Z,0.44
2017-02-12T15:16:13.234Z,0.44
2017-02-12T15:17:26.324Z,0.34
2017-02-12T15:18:39.423Z,0.33
2017-02-12T15:19:52.499Z,0.26
2017-02-12T15:21:04.388Z,0.29
2017-02-12T15:22:17.041Z,0.33
2017-02-12T15:23:29.804Z,0.36
2017-02-12T15:24:42.914Z,0.37
2017-02-12T15:25:55.972Z,0.34
2017-02-12T15:27:09.069Z,0.36
2017-02-12T15:28:21.726Z,0.29
2017-02-12T15:29:34.791Z,0.24
2017-02-12T15:30:47.555Z,0.24
2017-02-12T15:32:00.600Z,0.27
2017-02-12T15:33:13.323Z,0.31
2017-02-12T15:34:26.445Z,0.26
2017-02-12T15:35:39.562Z,0.29
2017-02-12T15:36:52.721Z,0.24
2017-02-12T15:38:05.805Z,0.27
2017-02-12T15:39:18.763Z,0.27
2017-02-12T15:40:31.484Z,0.26
2017-02-12T15:41:44.505Z,0.26
2017-02-12T15:42:57.576Z,0.3
2017-02-12T15:44:10.236Z,0.26
2017-02-12T15:45:23.309Z,0.15
2017-02-12T15:46:36.383Z,0.19
2017-02-12T15:47:49.447Z,0.13
2017-02-12T15:49:02.487Z,0.11
2017-02-12T15:50:15.582Z,0.08
2017-02-12T15:51:28.677Z,0.01
2017-02-12T15:52:41.742Z,-0.1